createdAt,value
2023-04-25T00:01:45.045Z,97.80
2023-04-25T00:04:13.663Z,97.90
2023-04-25T00:06:41.867Z,98.10
2023-04-25T00:09:12.108Z,97.80
2023-04-25T00:11:40.074Z,97.70
2023-04-25T00:14:08.721Z,97.60
2023-04-25T00:16:36.867Z,97.40
2023-04-25T00:19:05.266Z,97.40
2023-04-25T00:21:33.735Z,97.70
2023-04-25T00:24:02.212Z,97.80
2023-04-25T00:26:31.582Z,97.80
2023-04-25T00:28:59.684Z,98.00
2023-04-25T00:31:27.870Z,98.00
2023-04-25T00:33:55.987Z,98.10
2023-04-25T00:36:24.132Z,97.60
2023-04-25T00:38:52.080Z,97.60
2023-04-25T00:41:21.582Z,97.70
2023-04-25T00:43:51.924Z,97.70
2023-04-25T00:46:20.064Z,97.80
2023-04-25T00:48:48.088Z,97.90
2023-04-25T00:51:20.032Z,97.80
2023-04-25T00:53:51.055Z,97.90
2023-04-25T00:56:19.878Z,97.60
2023-04-25T00:58:47.891Z,97.80
2023-04-25T01:01:18.256Z,97.70
2023-04-25T01:03:51.333Z,97.80
2023-04-25T01:06:19.565Z,97.60
2023-04-25T01:08:48.393Z,97.70
2023-04-25T01:11:16.491Z,97.80
2023-04-25T01:13:44.560Z,97.60
2023-04-25T01:16:12.631Z,97.40
2023-04-25T01:18:43.662Z,97.60
2023-04-25T01:21:14.072Z,97.40
2023-04-25T01:23:43.451Z,97.20
2023-04-25T01:26:12.770Z,97.20
2023-04-25T01:28:42.162Z,97.40
2023-04-25T01:31:11.069Z,97.20
2023-04-25T01:33:39.603Z,97.40
2023-04-25T01:36:08.426Z,97.30
2023-04-25T01:38:37.998Z,97.50
2023-04-25T01:41:07.003Z,97.30
2023-04-25T01:43:35.202Z,97.40
2023-04-25T01:46:03.273Z,97.50
2023-04-25T01:48:31.334Z,97.80
2023-04-25T01:50:59.741Z,97.60
2023-04-25T01:53:27.950Z,97.90
2023-04-25T01:55:57.222Z,97.80
2023-04-25T01:58:25.739Z,97.70
2023-04-25T02:00:53.688Z,97.90
2023-04-25T02:03:21.765Z,98.20
2023-04-25T02:05:49.781Z,98.20
2023-04-25T02:08:19.676Z,98.00
2023-04-25T02:10:47.688Z,98.20
2023-04-25T02:13:17.020Z,98.30
2023-04-25T02:15:45.050Z,98.70
2023-04-25T02:18:13.239Z,98.30
2023-04-25T02:20:42.153Z,98.10
2023-04-25T02:23:10.403Z,97.90
2023-04-25T02:25:38.393Z,98.20
2023-04-25T02:28:06.322Z,98.20
2023-04-25T02:30:36.283Z,98.10
2023-04-25T02:33:04.288Z,97.80
2023-04-25T02:35:32.316Z,97.80
2023-04-25T02:38:00.289Z,97.80
2023-04-25T02:40:28.386Z,97.90
2023-04-25T02:42:56.308Z,97.50
2023-04-25T02:45:24.245Z,97.80
2023-04-25T02:47:53.589Z,98.20
2023-04-25T02:50:21.850Z,98.50
2023-04-25T02:52:49.790Z,98.60
2023-04-25T02:55:17.931Z,98.70
2023-04-25T02:57:45.893Z,98.80
2023-04-25T03:00:15.226Z,98.90
2023-04-25T03:02:43.372Z,98.70
2023-04-25T03:05:12.836Z,98.80
2023-04-25T03:07:41.334Z,99.10
2023-04-25T03:10:10.075Z,98.60
2023-04-25T03:12:38.200Z,98.80
2023-04-25T03:15:07.423Z,98.80
2023-04-25T03:17:35.469Z,98.70
2023-04-25T03:20:06.685Z,98.90
2023-04-25T03:22:36.214Z,98.80
2023-04-25T03:25:04.874Z,98.80
2023-04-25T03:27:32.843Z,98.80
2023-04-25T03:30:00.789Z,98.80
2023-04-25T03:32:28.785Z,98.50
2023-04-25T03:34:56.821Z,98.50
2023-04-25T03:37:25.195Z,98.40
2023-04-25T03:39:54.609Z,98.90
2023-04-25T03:42:23.774Z,98.40
2023-04-25T03:44:52.013Z,98.60
2023-04-25T03:47:20.114Z,98.50
2023-04-25T03:49:48.183Z,98.80
2023-04-25T03:52:16.576Z,99.00
2023-04-25T03:54:44.505Z,99.40
2023-04-25T03:57:13.877Z,98.90
2023-04-25T03:59:42.058Z,98.50
2023-04-25T04:02:10.285Z,98.70
2023-04-25T04:04:38.713Z,98.90
2023-04-25T04:07:07.864Z,99.10
2023-04-25T04:09:36.010Z,99.30
2023-04-25T04:12:04.020Z,99.10
2023-04-25T04:14:33.367Z,99.20
2023-04-25T04:17:01.363Z,99.20
2023-04-25T04:19:29.304Z,99.30
2023-04-25T04:21:57.311Z,99.00
2023-04-25T04:24:26.030Z,98.80
2023-04-25T04:26:54.765Z,98.70
2023-04-25T04:29:25.676Z,98.50
2023-04-25T04:31:56.573Z,98.60
2023-04-25T04:34:26.905Z,98.60
2023-04-25T04:36:56.122Z,98.80
2023-04-25T04:39:25.200Z,99.30
2023-04-25T04:41:53.468Z,99.00
2023-04-25T04:44:21.875Z,98.80
2023-04-25T04:46:49.922Z,99.00
2023-04-25T04:49:19.380Z,99.00
2023-04-25T04:51:48.416Z,98.70
2023-04-25T04:54:17.560Z,98.80
2023-04-25T04:56:46.476Z,99.20
2023-04-25T04:59:15.789Z,99.50
2023-04-25T05:01:44.639Z,99.50
2023-04-25T05:04:13.808Z,99.40
2023-04-25T05:06:47.505Z,99.60
2023-04-25T05:09:17.736Z,99.90
2023-04-25T05:11:46.199Z,99.70
2023-04-25T05:14:14.301Z,99.40
2023-04-25T05:16:42.565Z,99.30
2023-04-25T05:19:10.609Z,99.30
2023-04-25T05:21:39.266Z,99.10
2023-04-25T05:24:09.874Z,99.30
2023-04-25T05:26:39.247Z,99.20
2023-04-25T05:29:07.951Z,98.90
2023-04-25T05:31:36.687Z,98.60
2023-04-25T05:34:04.683Z,99.00
2023-04-25T05:36:33.633Z,98.30
2023-04-25T05:39:02.460Z,98.50
2023-04-25T05:41:32.261Z,98.60
2023-04-25T05:44:00.718Z,98.10
2023-04-25T05:46:29.651Z,98.00
2023-04-25T05:48:57.835Z,97.30
2023-04-25T05:51:27.469Z,98.00
2023-04-25T05:53:56.181Z,97.50
2023-04-25T05:56:24.230Z,97.80
2023-04-25T05:58:53.710Z,97.80
2023-04-25T06:01:22.077Z,97.00
2023-04-25T06:03:50.827Z,96.80
2023-04-25T06:06:19.897Z,96.40
2023-04-25T06:08:48.707Z,96.80
2023-04-25T06:11:17.092Z,97.20
2023-04-25T06:13:45.486Z,96.90
2023-04-25T06:16:15.639Z,97.20
2023-04-25T06:18:43.993Z,96.80
2023-04-25T06:21:12.435Z,97.90
2023-04-25T06:23:40.428Z,96.90
2023-04-25T06:26:08.401Z,96.30
2023-04-25T06:28:36.537Z,96.20
2023-04-25T06:31:04.731Z,95.80
2023-04-25T06:33:34.651Z,94.70
2023-04-25T06:36:02.738Z,95.80
2023-04-25T06:38:30.837Z,94.80
2023-04-25T06:40:58.935Z,94.90
2023-04-25T06:43:26.853Z,93.40
2023-04-25T06:45:54.804Z,93.50
2023-04-25T06:48:22.863Z,94.20
2023-04-25T06:50:52.421Z,93.70
2023-04-25T06:53:20.704Z,94.20
2023-04-25T06:55:48.790Z,94.10
2023-04-25T06:58:17.020Z,93.10
2023-04-25T07:00:45.294Z,92.30
2023-04-25T07:03:13.631Z,92.50
2023-04-25T07:05:41.866Z,92.00
2023-04-25T07:08:11.288Z,91.60
2023-04-25T07:10:39.770Z,91.50
2023-04-25T07:13:07.889Z,91.90
2023-04-25T07:15:36.004Z,92.00
2023-04-25T07:18:04.152Z,91.50
2023-04-25T07:20:32.631Z,92.40
2023-04-25T07:23:00.809Z,92.00
2023-04-25T07:25:30.093Z,92.10
2023-04-25T07:27:58.186Z,91.50
2023-04-25T07:30:26.685Z,91.40
2023-04-25T07:32:54.673Z,91.30
2023-04-25T07:35:22.773Z,91.30
2023-04-25T07:37:51.330Z,91.30
2023-04-25T07:40:19.310Z,92.30
2023-04-25T07:42:48.664Z,92.00
2023-04-25T07:45:17.150Z,91.10
2023-04-25T07:47:45.922Z,90.90
2023-04-25T07:50:13.988Z,91.50
2023-04-25T07:52:42.044Z,90.90
2023-04-25T07:55:11.022Z,91.10
2023-04-25T07:57:39.330Z,91.10
2023-04-25T08:00:12.166Z,90.90
2023-04-25T08:02:40.281Z,91.00
2023-04-25T08:05:09.347Z,91.60
2023-04-25T08:07:37.385Z,91.40
2023-04-25T08:10:06.089Z,91.80
2023-04-25T08:12:34.182Z,93.20
2023-04-25T08:15:02.174Z,90.90
2023-04-25T08:17:31.509Z,91.20
2023-04-25T08:19:59.640Z,91.00
2023-04-25T08:22:27.709Z,91.60
2023-04-25T08:24:55.676Z,91.70
2023-04-25T08:27:24.680Z,90.80
2023-04-25T08:29:53.928Z,91.00
2023-04-25T08:32:23.520Z,91.40
2023-04-25T08:34:55.402Z,91.30
2023-04-25T08:37:23.789Z,91.20
2023-04-25T08:39:53.605Z,92.20
2023-04-25T08:42:23.905Z,91.50
2023-04-25T08:44:52.993Z,90.80
2023-04-25T08:47:25.000Z,91.40
2023-04-25T08:49:55.903Z,90.80
2023-04-25T08:52:25.427Z,91.10
2023-04-25T08:54:54.740Z,90.00
2023-04-25T08:57:24.485Z,88.30
2023-04-25T08:59:55.744Z,90.20
2023-04-25T09:02:26.581Z,86.20
2023-04-25T09:04:57.251Z,85.10
2023-04-25T09:07:26.645Z,86.10
2023-04-25T09:09:56.378Z,86.00
2023-04-25T09:12:25.374Z,86.20
2023-04-25T09:15:09.026Z,88.10
2023-04-25T09:17:41.367Z,86.20
2023-04-25T09:20:13.972Z,87.90
2023-04-25T09:22:44.026Z,88.60
2023-04-25T09:25:15.773Z,88.10
2023-04-25T09:27:53.199Z,85.10
2023-04-25T09:30:30.373Z,85.40
2023-04-25T09:32:59.711Z,88.30
2023-04-25T09:35:32.253Z,87.40
2023-04-25T09:38:01.548Z,88.10
2023-04-25T09:40:32.833Z,88.40
2023-04-25T09:43:01.518Z,89.60
2023-04-25T09:45:32.273Z,90.80
2023-04-25T09:48:07.018Z,91.20
2023-04-25T09:50:37.572Z,91.60
2023-04-25T09:53:06.926Z,92.50
2023-04-25T09:55:36.860Z,92.70
2023-04-25T09:58:08.623Z,93.40
2023-04-25T10:00:37.673Z,92.40
2023-04-25T10:03:09.036Z,92.40
2023-04-25T10:05:40.345Z,93.50
2023-04-25T10:08:10.392Z,93.00
2023-04-25T10:10:41.542Z,92.60
2023-04-25T10:13:11.914Z,92.50
2023-04-25T10:15:42.934Z,91.60
2023-04-25T10:18:11.539Z,92.20
2023-04-25T10:20:41.323Z,91.00
2023-04-25T10:23:16.058Z,91.00
2023-04-25T10:25:46.060Z,90.40
2023-04-25T10:28:14.214Z,90.00
2023-04-25T10:30:59.331Z,89.10
2023-04-25T10:33:37.488Z,89.70
2023-04-25T10:36:14.970Z,91.10
2023-04-25T10:38:45.446Z,90.30
2023-04-25T10:41:14.557Z,89.00
2023-04-25T10:43:43.561Z,87.20
2023-04-25T10:46:20.269Z,87.10
2023-04-25T10:48:50.787Z,85.20
2023-04-25T10:51:22.517Z,84.70
2023-04-25T10:54:00.196Z,86.20
2023-04-25T10:56:29.911Z,85.90
2023-04-25T10:59:09.283Z,87.90
2023-04-25T11:01:42.375Z,88.50
2023-04-25T11:04:23.496Z,89.10
2023-04-25T11:07:08.262Z,90.50
2023-04-25T11:09:37.129Z,90.30
2023-04-25T11:12:09.410Z,91.30
2023-04-25T11:17:11.788Z,92.10
2023-04-25T11:19:42.095Z,92.30
2023-04-25T11:22:17.602Z,92.90
2023-04-25T11:24:50.181Z,93.40
2023-04-25T11:27:29.155Z,92.80
2023-04-25T11:29:58.958Z,93.10
2023-04-25T11:32:55.799Z,93.20
2023-04-25T11:35:26.251Z,92.70
2023-04-25T11:37:56.058Z,92.00
2023-04-25T11:40:24.204Z,91.20
2023-04-25T11:42:52.421Z,91.80
2023-04-25T11:45:25.757Z,91.80
2023-04-25T11:47:54.081Z,91.30
2023-04-25T11:50:22.192Z,91.40
2023-04-25T11:52:51.147Z,92.50
2023-04-25T11:55:22.878Z,91.60
2023-04-25T11:57:52.109Z,91.00
2023-04-25T12:00:22.253Z,91.80
2023-04-25T12:02:54.254Z,91.60
2023-04-25T12:07:56.909Z,91.50
2023-04-25T12:10:27.702Z,90.60
2023-04-25T12:12:55.854Z,90.50
2023-04-25T12:15:27.193Z,90.00
2023-04-25T12:17:57.628Z,88.10
2023-04-25T12:20:28.084Z,89.10
2023-04-25T12:22:56.597Z,89.50
2023-04-25T12:25:39.528Z,91.40
2023-04-25T12:28:21.188Z,91.50
2023-04-25T12:31:00.415Z,90.60
2023-04-25T12:33:29.851Z,89.40
2023-04-25T12:35:58.503Z,89.80
2023-04-25T12:38:27.758Z,89.50
2023-04-25T12:40:57.183Z,90.00
2023-04-25T12:43:25.587Z,89.40
2023-04-25T12:45:54.971Z,90.80
2023-04-25T12:48:24.300Z,90.80
2023-04-25T12:50:53.897Z,90.80
2023-04-25T12:53:22.971Z,91.30
2023-04-25T12:55:51.584Z,92.10
2023-04-25T12:58:21.480Z,92.10
2023-04-25T13:00:50.166Z,92.60
2023-04-25T13:03:19.326Z,94.20
2023-04-25T13:05:48.885Z,94.00
2023-04-25T13:08:17.208Z,94.00
2023-04-25T13:10:45.422Z,94.60
2023-04-25T13:13:13.566Z,95.40
2023-04-25T13:15:42.924Z,95.70
2023-04-25T13:18:11.837Z,95.40
2023-04-25T13:20:40.002Z,96.20
2023-04-25T13:23:08.004Z,97.20
2023-04-25T13:25:36.011Z,98.10
2023-04-25T13:28:04.401Z,98.70
2023-04-25T13:30:32.606Z,98.70
2023-04-25T13:33:04.539Z,98.90
2023-04-25T13:35:32.954Z,98.30
2023-04-25T13:38:01.305Z,99.60
2023-04-25T13:40:29.603Z,99.90
2023-04-25T13:42:57.996Z,99.90
2023-04-25T13:45:33.710Z,99.90
2023-04-25T13:48:03.535Z,99.90
2023-04-25T13:50:32.840Z,99.90
2023-04-25T13:53:01.351Z,99.90
2023-04-25T13:55:29.858Z,99.90
2023-04-25T13:57:57.955Z,99.90
2023-04-25T14:00:26.236Z,99.90
2023-04-25T14:02:54.694Z,99.90
2023-04-25T14:05:24.097Z,99.90
2023-04-25T14:07:52.099Z,99.90
2023-04-25T14:10:20.559Z,99.90
2023-04-25T14:12:48.627Z,99.90
2023-04-25T14:15:16.612Z,99.90
2023-04-25T14:17:46.737Z,99.90
2023-04-25T14:20:14.911Z,99.90
2023-04-25T14:22:44.725Z,99.90
2023-04-25T14:25:12.878Z,99.90
2023-04-25T14:27:41.203Z,99.90
2023-04-25T14:30:10.836Z,99.90
2023-04-25T14:32:38.984Z,99.90
2023-04-25T14:35:08.108Z,99.90
2023-04-25T14:37:36.277Z,99.90
2023-04-25T14:40:08.230Z,99.90
2023-04-25T14:42:36.482Z,99.90
2023-04-25T14:45:05.034Z,99.90
2023-04-25T14:47:33.145Z,99.90
2023-04-25T14:50:02.627Z,99.90
2023-04-25T14:52:31.615Z,99.90
2023-04-25T14:55:00.968Z,99.90
2023-04-25T14:57:30.623Z,99.90
2023-04-25T14:59:58.725Z,99.90
2023-04-25T15:02:27.505Z,99.90
2023-04-25T15:04:56.721Z,99.90
2023-04-25T15:07:25.339Z,99.90
2023-04-25T15:09:56.811Z,99.90
2023-04-25T15:12:27.429Z,99.60
2023-04-25T15:14:56.862Z,99.90
2023-04-25T15:17:24.830Z,98.90
2023-04-25T15:19:52.766Z,98.70
2023-04-25T15:22:20.721Z,97.10
2023-04-25T15:24:48.718Z,96.60
2023-04-25T15:27:17.973Z,96.40
2023-04-25T15:29:46.488Z,96.20
2023-04-25T15:32:16.018Z,96.10
2023-04-25T15:34:44.369Z,95.90
2023-04-25T15:37:12.553Z,96.40
2023-04-25T15:39:40.899Z,96.40
2023-04-25T15:42:09.342Z,95.60
2023-04-25T15:44:37.264Z,95.50
2023-04-25T15:47:05.309Z,95.10
2023-04-25T15:49:34.781Z,96.20
2023-04-25T15:52:03.511Z,96.30
2023-04-25T15:54:31.629Z,96.10
2023-04-25T15:56:59.619Z,95.30
2023-04-25T15:59:27.842Z,94.90
2023-04-25T16:01:57.207Z,95.20
2023-04-25T16:04:27.685Z,93.40
2023-04-25T16:06:57.285Z,94.30
2023-04-25T16:09:26.008Z,93.40
2023-04-25T16:11:54.700Z,92.90
2023-04-25T16:14:23.020Z,94.00
2023-04-25T16:16:52.533Z,92.60
2023-04-25T16:19:21.160Z,92.70
2023-04-25T16:21:49.859Z,93.90
2023-04-25T16:24:21.570Z,93.50
2023-04-25T16:26:49.760Z,94.10
2023-04-25T16:29:17.878Z,93.60
2023-04-25T16:31:47.381Z,93.90
2023-04-25T16:34:16.344Z,92.80
2023-04-25T16:36:44.746Z,93.30
2023-04-25T16:39:13.528Z,93.60
2023-04-25T16:41:43.808Z,93.60
2023-04-25T16:44:13.058Z,93.70
2023-04-25T16:46:43.334Z,93.80
2023-04-25T16:49:12.225Z,93.90
2023-04-25T16:51:41.491Z,93.60
2023-04-25T16:54:10.098Z,93.80
2023-04-25T16:56:38.570Z,94.10
2023-04-25T16:59:09.139Z,94.40
2023-04-25T17:01:38.597Z,94.20
2023-04-25T17:04:07.868Z,93.90
2023-04-25T17:06:36.950Z,94.50
2023-04-25T17:09:08.327Z,94.90
2023-04-25T17:11:36.587Z,95.20
2023-04-25T17:14:07.049Z,95.30
2023-04-25T17:16:36.896Z,95.10
2023-04-25T17:19:07.317Z,95.00
2023-04-25T17:21:38.260Z,95.20
2023-04-25T17:24:12.833Z,95.00
2023-04-25T17:26:41.096Z,94.90
2023-04-25T17:29:10.465Z,94.70
2023-04-25T17:31:38.911Z,94.70
2023-04-25T17:34:08.890Z,94.60
2023-04-25T17:36:37.371Z,94.80
2023-04-25T17:39:09.337Z,94.60
2023-04-25T17:41:38.908Z,94.00
2023-04-25T17:44:07.198Z,94.80
2023-04-25T17:46:37.429Z,94.70
2023-04-25T17:49:06.113Z,94.50
2023-04-25T17:51:34.161Z,94.40
2023-04-25T17:54:02.150Z,94.10
2023-04-25T17:56:31.179Z,94.20
2023-04-25T17:58:59.273Z,94.10
2023-04-25T18:01:27.495Z,94.10
2023-04-25T18:03:57.144Z,93.90
2023-04-25T18:06:25.196Z,94.00
2023-04-25T18:08:55.438Z,94.40
2023-04-25T18:11:24.245Z,95.60
2023-04-25T18:13:52.533Z,95.30
2023-04-25T18:16:20.588Z,95.50
2023-04-25T18:18:53.295Z,96.00
2023-04-25T18:21:23.237Z,96.00
2023-04-25T18:23:51.256Z,95.90
2023-04-25T18:26:20.170Z,95.80
2023-04-25T18:28:48.154Z,96.40
2023-04-25T18:31:17.302Z,96.10
2023-04-25T18:33:47.959Z,96.30
2023-04-25T18:36:17.015Z,96.60
2023-04-25T18:38:50.340Z,96.80
2023-04-25T18:41:47.993Z,97.00
2023-04-25T18:44:09.037Z,97.50
2023-04-25T18:46:41.589Z,97.60
2023-04-25T18:49:10.333Z,97.70
2023-04-25T18:51:39.089Z,97.50
2023-04-25T18:54:12.134Z,97.50
2023-04-25T18:57:01.085Z,97.10
2023-04-25T18:59:29.256Z,97.00
2023-04-25T19:01:57.334Z,96.90
2023-04-25T19:04:25.749Z,97.10
2023-04-25T19:06:54.390Z,97.80
2023-04-25T19:09:24.893Z,97.50
2023-04-25T19:11:53.031Z,97.20
2023-04-25T19:14:21.609Z,97.70
2023-04-25T19:16:49.683Z,98.10
2023-04-25T19:19:17.670Z,97.80
2023-04-25T19:21:45.693Z,97.70
2023-04-25T19:24:13.915Z,97.60
2023-04-25T19:26:45.124Z,97.60
2023-04-25T19:29:16.454Z,98.00
2023-04-25T19:31:46.970Z,98.20
2023-04-25T19:34:16.359Z,98.00
2023-04-25T19:36:45.324Z,97.80
2023-04-25T19:39:13.637Z,97.90
2023-04-25T19:41:42.947Z,98.00
2023-04-25T19:44:10.986Z,98.20
2023-04-25T19:46:40.465Z,98.20
2023-04-25T19:49:09.506Z,98.00
2023-04-25T19:51:38.372Z,98.70
2023-04-25T19:54:07.703Z,99.20
2023-04-25T19:56:37.858Z,98.60
2023-04-25T19:59:08.055Z,98.60
2023-04-25T20:01:38.064Z,98.40
2023-04-25T20:04:06.843Z,98.70
2023-04-25T20:06:35.788Z,98.40
2023-04-25T20:09:06.286Z,98.40
2023-04-25T20:11:34.996Z,98.30
2023-04-25T20:14:06.063Z,98.70
2023-04-25T20:16:36.950Z,99.10
2023-04-25T20:19:05.865Z,99.10
2023-04-25T20:21:34.377Z,99.10
2023-04-25T20:24:03.599Z,99.00
2023-04-25T20:26:34.680Z,99.20
2023-04-25T20:29:03.410Z,99.90
2023-04-25T20:31:34.447Z,99.80
2023-04-25T20:34:04.476Z,99.40
2023-04-25T20:36:34.169Z,99.50
2023-04-25T20:39:02.834Z,99.70
2023-04-25T20:41:31.502Z,99.30
2023-04-25T20:44:01.410Z,99.40
2023-04-25T20:46:30.063Z,99.10
2023-04-25T20:48:57.994Z,98.90
2023-04-25T20:51:27.753Z,99.10
2023-04-25T20:53:55.954Z,99.10
2023-04-25T20:56:24.331Z,98.60
2023-04-25T20:58:55.705Z,98.30
2023-04-25T21:01:23.980Z,98.40
2023-04-25T21:03:53.090Z,97.70
2023-04-25T21:06:21.704Z,97.60
2023-04-25T21:08:51.852Z,97.00
2023-04-25T21:11:20.480Z,96.80
2023-04-25T21:13:48.886Z,96.40
2023-04-25T21:16:16.994Z,95.90
2023-04-25T21:18:45.112Z,95.60
2023-04-25T21:21:13.287Z,96.00
2023-04-25T21:23:42.961Z,96.10
2023-04-25T21:26:12.352Z,95.80
2023-04-25T21:28:40.676Z,95.40
2023-04-25T21:31:08.963Z,95.40
2023-04-25T21:33:37.572Z,95.60
2023-04-25T21:36:06.104Z,95.90
2023-04-25T21:38:34.938Z,95.70
2023-04-25T21:41:03.445Z,95.80
2023-04-25T21:43:32.927Z,95.40
2023-04-25T21:48:32.077Z,95.20
2023-04-25T21:51:00.591Z,95.10
2023-04-25T21:53:29.010Z,94.90
2023-04-25T21:55:57.258Z,94.90
2023-04-25T21:58:25.654Z,94.90
2023-04-25T22:00:55.679Z,95.00
2023-04-25T22:03:24.273Z,95.10
2023-04-25T22:05:52.668Z,95.00
2023-04-25T22:08:20.767Z,95.30
2023-04-25T22:10:49.335Z,95.10
2023-04-25T22:13:17.347Z,95.10
2023-04-25T22:15:45.921Z,94.80
2023-04-25T22:18:16.240Z,95.10
2023-04-25T22:20:45.188Z,94.80
2023-04-25T22:23:13.770Z,94.40
2023-04-25T22:25:42.357Z,94.40
2023-04-25T22:28:10.740Z,94.50
2023-04-25T22:30:38.751Z,94.50
2023-04-25T22:33:07.693Z,94.50
2023-04-25T22:35:37.508Z,94.90
2023-04-25T22:38:06.065Z,95.30
2023-04-25T22:40:34.152Z,95.00
2023-04-25T22:43:02.161Z,95.00
2023-04-25T22:45:30.517Z,94.70
2023-04-25T22:47:58.744Z,94.80
2023-04-25T22:50:27.024Z,94.50
2023-04-25T22:52:56.635Z,94.50
2023-04-25T22:55:26.410Z,94.30
2023-04-25T22:57:55.049Z,94.10
2023-04-25T23:00:26.082Z,94.20
2023-04-25T23:02:55.098Z,94.20
2023-04-25T23:05:24.430Z,94.10
2023-04-25T23:07:53.534Z,94.00
2023-04-25T23:10:24.516Z,94.20
2023-04-25T23:12:53.532Z,94.30
2023-04-25T23:15:21.544Z,94.00
2023-04-25T23:17:50.324Z,94.30
2023-04-25T23:20:18.859Z,94.00
2023-04-25T23:22:47.149Z,94.20
2023-04-25T23:25:16.624Z,94.50
2023-04-25T23:27:46.063Z,94.40
2023-04-25T23:30:15.211Z,94.20
2023-04-25T23:32:43.691Z,94.50
2023-04-25T23:35:12.943Z,94.30
2023-04-25T23:37:41.883Z,94.30
2023-04-25T23:40:12.085Z,93.70
2023-04-25T23:42:42.259Z,93.80
2023-04-25T23:45:14.439Z,94.00
2023-04-25T23:47:43.085Z,93.90
2023-04-25T23:50:12.023Z,93.90
2023-04-25T23:52:40.311Z,94.00
2023-04-25T23:55:10.019Z,93.70
2023-04-25T23:57:38.254Z,93.90
